createdAt,value
2022-12-20T00:01:55.436Z,23.47
2022-12-20T00:04:23.858Z,23.47
2022-12-20T00:06:51.725Z,23.47
2022-12-20T00:09:19.605Z,23.48
2022-12-20T00:11:47.473Z,23.45
2022-12-20T00:14:17.133Z,23.46
2022-12-20T00:16:45.056Z,23.46
2022-12-20T00:19:13.044Z,23.46
2022-12-20T00:21:40.950Z,23.47
2022-12-20T00:24:09.279Z,23.46
2022-12-20T00:26:38.057Z,23.45
2022-12-20T00:29:06.489Z,23.46
2022-12-20T00:31:35.966Z,23.45
2022-12-20T00:34:04.218Z,23.45
2022-12-20T00:36:32.593Z,23.44
2022-12-20T00:39:01.409Z,23.46
2022-12-20T00:41:30.291Z,23.44
2022-12-20T00:43:58.694Z,23.44
2022-12-20T00:46:26.789Z,23.43
2022-12-20T00:48:56.803Z,23.44
2022-12-20T00:51:25.949Z,23.45
2022-12-20T00:53:54.499Z,23.45
2022-12-20T00:56:22.434Z,23.44
2022-12-20T00:58:50.311Z,23.44
2022-12-20T01:01:20.555Z,23.44
2022-12-20T01:03:48.920Z,23.44
2022-12-20T01:06:18.311Z,23.43
2022-12-20T01:08:46.257Z,23.44
2022-12-20T01:11:14.831Z,23.44
2022-12-20T01:13:44.459Z,23.44
2022-12-20T01:16:13.750Z,23.42
2022-12-20T01:18:41.671Z,23.42
2022-12-20T01:21:10.306Z,23.42
2022-12-20T01:23:40.441Z,23.42
2022-12-20T01:26:10.939Z,23.42
2022-12-20T01:28:38.902Z,23.42
2022-12-20T01:31:07.796Z,23.42
2022-12-20T01:33:36.157Z,23.42
2022-12-20T01:36:05.014Z,23.42
2022-12-20T01:38:32.967Z,23.42
2022-12-20T01:41:02.330Z,23.41
2022-12-20T01:43:47.204Z,23.42
2022-12-20T01:46:15.162Z,23.42
2022-12-20T01:48:43.488Z,23.42
2022-12-20T01:51:11.384Z,23.42
2022-12-20T01:53:39.669Z,23.42
2022-12-20T01:56:09.318Z,23.41
2022-12-20T01:58:37.295Z,23.41
2022-12-20T02:01:05.232Z,23.41
2022-12-20T02:03:33.632Z,23.41
2022-12-20T02:06:15.396Z,23.41
2022-12-20T02:08:43.281Z,23.41
2022-12-20T02:11:17.386Z,23.34
2022-12-20T02:13:49.107Z,23.40
2022-12-20T02:16:21.540Z,23.40
2022-12-20T02:18:52.693Z,23.41
2022-12-20T02:21:26.662Z,23.41
2022-12-20T02:24:26.526Z,23.34
2022-12-20T02:27:18.987Z,23.40
2022-12-20T02:30:10.045Z,23.33
2022-12-20T02:32:40.699Z,23.39
2022-12-20T02:35:09.303Z,23.39
2022-12-20T02:37:37.202Z,23.40
2022-12-20T02:40:05.841Z,23.33
2022-12-20T02:42:34.168Z,23.39
2022-12-20T02:45:17.442Z,23.40
2022-12-20T02:47:50.137Z,23.38
2022-12-20T02:50:19.899Z,23.38
2022-12-20T02:52:48.148Z,23.39
2022-12-20T02:55:16.121Z,23.39
2022-12-20T02:57:46.737Z,23.39
2022-12-20T03:00:17.388Z,23.39
2022-12-20T03:03:03.383Z,23.38
2022-12-20T03:05:31.392Z,22.98
2022-12-20T03:07:59.691Z,23.38
2022-12-20T03:10:27.612Z,23.39
2022-12-20T03:12:56.014Z,23.39
2022-12-20T03:15:25.290Z,23.37
2022-12-20T03:17:53.147Z,23.38
2022-12-20T03:20:20.979Z,23.38
2022-12-20T03:22:49.158Z,23.39
2022-12-20T03:25:17.746Z,23.39
2022-12-20T03:27:45.782Z,23.38
2022-12-20T03:30:15.200Z,23.38
2022-12-20T03:32:44.860Z,23.39
2022-12-20T03:35:12.747Z,23.39
2022-12-20T03:37:40.636Z,23.38
2022-12-20T03:40:09.571Z,23.37
2022-12-20T03:42:37.796Z,23.37
2022-12-20T03:45:08.996Z,23.38
2022-12-20T03:47:36.905Z,23.36
2022-12-20T03:50:07.417Z,23.38
2022-12-20T03:52:35.704Z,23.38
2022-12-20T03:55:03.659Z,23.38
2022-12-20T03:57:31.538Z,23.37
2022-12-20T03:59:59.446Z,23.38
2022-12-20T04:02:27.532Z,23.37
2022-12-20T04:04:55.587Z,23.38
2022-12-20T04:07:24.906Z,23.37
2022-12-20T04:09:52.791Z,23.37
2022-12-20T04:12:20.681Z,23.35
2022-12-20T04:14:48.842Z,23.38
2022-12-20T04:17:16.759Z,23.38
2022-12-20T04:19:44.637Z,23.38
2022-12-20T04:22:12.527Z,23.38
2022-12-20T04:24:42.064Z,23.38
2022-12-20T04:27:10.065Z,23.39
2022-12-20T04:29:37.997Z,23.38
2022-12-20T04:32:06.109Z,23.38
2022-12-20T04:34:34.244Z,23.39
2022-12-20T04:37:02.163Z,23.38
2022-12-20T04:39:30.082Z,23.39
2022-12-20T04:41:59.383Z,23.37
2022-12-20T04:44:27.872Z,23.38
2022-12-20T04:46:55.793Z,23.39
2022-12-20T04:49:23.744Z,23.38
2022-12-20T04:51:51.625Z,23.39
2022-12-20T04:54:18.802Z,23.40
2022-12-20T04:56:46.656Z,23.40
2022-12-20T04:59:15.959Z,23.40
2022-12-20T05:01:43.903Z,23.40
2022-12-20T05:04:12.267Z,23.40
2022-12-20T05:06:40.287Z,23.38
2022-12-20T05:09:08.206Z,23.39
2022-12-20T05:11:36.174Z,23.40
2022-12-20T05:14:04.347Z,23.40
2022-12-20T05:16:33.620Z,23.40
2022-12-20T05:19:03.260Z,23.39
2022-12-20T05:21:48.660Z,23.40
2022-12-20T05:24:33.915Z,23.39
2022-12-20T05:27:01.862Z,23.40
2022-12-20T05:29:29.833Z,23.39
2022-12-20T05:31:59.059Z,23.40
2022-12-20T05:34:27.348Z,23.39
2022-12-20T05:36:55.361Z,23.39
2022-12-20T05:39:23.258Z,23.40
2022-12-20T05:41:51.429Z,23.39
2022-12-20T05:44:20.266Z,23.40
2022-12-20T05:46:48.245Z,23.39
2022-12-20T05:49:17.942Z,23.41
2022-12-20T05:51:45.794Z,23.41
2022-12-20T05:54:13.988Z,23.40
2022-12-20T05:56:41.885Z,23.40
2022-12-20T05:59:09.822Z,23.40
2022-12-20T06:01:37.852Z,23.41
2022-12-20T06:04:06.340Z,23.40
2022-12-20T06:06:35.693Z,23.41
2022-12-20T06:09:03.574Z,23.41
2022-12-20T06:11:31.522Z,23.41
2022-12-20T06:13:59.891Z,23.40
2022-12-20T06:16:27.865Z,23.40
2022-12-20T06:18:55.843Z,23.40
2022-12-20T06:21:23.865Z,23.41
2022-12-20T06:23:53.498Z,23.40
2022-12-20T06:26:23.155Z,23.38
2022-12-20T06:28:52.769Z,23.40
2022-12-20T06:31:20.773Z,23.40
2022-12-20T06:33:49.061Z,23.41
2022-12-20T06:36:16.941Z,23.40
2022-12-20T06:38:44.805Z,23.41
2022-12-20T06:41:14.082Z,23.42
2022-12-20T06:43:42.350Z,23.41
2022-12-20T06:46:11.627Z,23.41
2022-12-20T06:48:39.497Z,23.41
2022-12-20T06:51:07.888Z,23.41
2022-12-20T06:53:36.363Z,23.41
2022-12-20T06:56:04.405Z,23.42
2022-12-20T06:58:33.662Z,23.41
2022-12-20T07:01:01.697Z,23.41
2022-12-20T07:03:30.088Z,23.41
2022-12-20T07:05:58.036Z,23.41
2022-12-20T07:08:26.061Z,23.42
2022-12-20T07:10:54.632Z,23.42
2022-12-20T07:13:22.774Z,23.32
2022-12-20T07:15:59.333Z,23.41
2022-12-20T07:18:27.247Z,23.41
2022-12-20T07:20:55.165Z,23.43
2022-12-20T07:23:23.380Z,23.42
2022-12-20T07:25:55.603Z,23.42
2022-12-20T07:28:23.720Z,23.42
2022-12-20T07:30:55.467Z,23.42
2022-12-20T07:33:23.671Z,23.41
2022-12-20T07:35:54.917Z,23.41
2022-12-20T07:38:22.887Z,23.41
2022-12-20T07:40:50.856Z,23.40
2022-12-20T07:43:19.032Z,23.41
2022-12-20T07:45:47.636Z,23.39
2022-12-20T07:48:21.585Z,23.43
2022-12-20T07:50:49.986Z,23.42
2022-12-20T07:53:18.972Z,23.42
2022-12-20T07:55:46.828Z,23.42
2022-12-20T07:58:14.728Z,23.42
2022-12-20T08:00:42.661Z,23.42
2022-12-20T08:03:12.874Z,23.33
2022-12-20T08:05:43.376Z,23.44
2022-12-20T08:08:11.253Z,23.42
2022-12-20T08:10:39.255Z,23.43
2022-12-20T08:13:07.449Z,23.44
2022-12-20T08:15:35.357Z,23.43
2022-12-20T08:18:03.281Z,23.43
2022-12-20T08:20:31.285Z,23.38
2022-12-20T08:23:00.845Z,23.43
2022-12-20T08:25:28.771Z,23.37
2022-12-20T08:27:56.806Z,23.36
2022-12-20T08:30:24.731Z,23.43
2022-12-20T08:32:52.908Z,23.42
2022-12-20T08:35:20.851Z,23.43
2022-12-20T08:37:48.742Z,23.42
2022-12-20T08:40:18.983Z,23.43
2022-12-20T08:42:47.200Z,23.43
2022-12-20T08:45:15.318Z,23.44
2022-12-20T08:47:43.157Z,23.43
2022-12-20T08:50:11.767Z,23.43
2022-12-20T08:52:40.235Z,23.44
2022-12-20T08:55:08.658Z,23.43
2022-12-20T08:57:38.010Z,23.43
2022-12-20T09:00:07.990Z,23.44
2022-12-20T09:02:38.293Z,23.45
2022-12-20T09:05:06.785Z,23.44
2022-12-20T09:07:34.706Z,23.39
2022-12-20T09:10:03.182Z,23.43
2022-12-20T09:12:31.607Z,23.45
2022-12-20T09:15:00.888Z,23.45
2022-12-20T09:17:28.815Z,23.45
2022-12-20T09:19:56.703Z,23.45
2022-12-20T09:22:24.584Z,23.44
2022-12-20T09:24:53.655Z,23.45
2022-12-20T09:27:21.603Z,23.45
2022-12-20T09:29:49.519Z,23.45
2022-12-20T09:32:18.819Z,23.46
2022-12-20T09:34:48.216Z,23.46
2022-12-20T09:37:16.047Z,23.46
2022-12-20T09:39:43.961Z,23.45
2022-12-20T09:42:11.844Z,23.45
2022-12-20T09:44:41.057Z,23.45
2022-12-20T09:47:11.444Z,23.45
2022-12-20T09:49:42.566Z,23.45
2022-12-20T09:52:22.552Z,23.44
2022-12-20T09:54:53.789Z,23.44
2022-12-20T09:57:25.106Z,23.45
2022-12-20T09:59:53.010Z,23.44
2022-12-20T10:05:14.772Z,23.46
2022-12-20T10:07:54.810Z,23.27
2022-12-20T10:10:42.699Z,23.45
2022-12-20T10:13:18.100Z,23.46
2022-12-20T10:15:48.491Z,23.44
2022-12-20T10:18:23.127Z,23.44
2022-12-20T10:20:58.698Z,23.41
2022-12-20T10:23:32.983Z,23.44
2022-12-20T10:26:01.784Z,23.44
2022-12-20T10:28:30.710Z,23.45
2022-12-20T10:31:00.796Z,23.46
2022-12-20T10:33:29.129Z,23.45
2022-12-20T10:35:59.344Z,23.46
2022-12-20T10:38:27.615Z,23.45
2022-12-20T10:41:20.687Z,23.45
2022-12-20T10:43:50.909Z,23.40
2022-12-20T10:46:18.898Z,23.44
2022-12-20T10:48:47.785Z,23.45
2022-12-20T10:51:18.511Z,23.46
2022-12-20T10:53:54.658Z,23.46
2022-12-20T10:56:24.190Z,23.46
2022-12-20T10:58:56.907Z,23.46
2022-12-20T11:01:26.837Z,23.46
2022-12-20T11:03:57.329Z,23.46
2022-12-20T11:06:28.415Z,23.44
2022-12-20T11:09:18.871Z,23.46
2022-12-20T11:12:04.139Z,23.46
2022-12-20T11:14:38.729Z,23.46
2022-12-20T11:17:16.189Z,23.47
2022-12-20T11:19:51.854Z,23.47
2022-12-20T11:22:27.579Z,23.41
2022-12-20T11:24:59.167Z,23.47
2022-12-20T11:27:30.314Z,23.47
2022-12-20T11:30:11.155Z,23.46
2022-12-20T11:33:08.277Z,23.46
2022-12-20T11:35:42.638Z,23.46
2022-12-20T11:38:15.796Z,23.46
2022-12-20T11:40:45.246Z,23.40
2022-12-20T11:43:23.643Z,23.46
2022-12-20T11:46:00.303Z,23.47
2022-12-20T11:48:36.894Z,23.47
2022-12-20T11:51:08.690Z,23.46
2022-12-20T11:53:43.218Z,23.47
2022-12-20T11:56:12.308Z,23.46
2022-12-20T11:58:47.706Z,23.47
2022-12-20T12:01:17.695Z,23.47
2022-12-20T12:03:47.649Z,23.48
2022-12-20T12:06:18.986Z,23.48
2022-12-20T12:08:51.107Z,23.48
2022-12-20T12:12:03.815Z,23.48
2022-12-20T12:14:11.249Z,23.47
2022-12-20T12:16:40.753Z,23.47
2022-12-20T12:19:10.157Z,23.48
2022-12-20T12:21:40.107Z,23.46
2022-12-20T12:24:15.252Z,23.48
2022-12-20T12:26:43.208Z,23.49
2022-12-20T12:29:12.547Z,23.48
2022-12-20T12:31:41.925Z,23.42
2022-12-20T12:34:15.361Z,23.49
2022-12-20T12:36:55.198Z,23.47
2022-12-20T12:39:58.326Z,23.48
2022-12-20T12:42:59.948Z,23.49
2022-12-20T12:45:28.462Z,23.50
2022-12-20T12:47:59.493Z,23.48
2022-12-20T12:50:29.348Z,23.51
2022-12-20T12:52:58.335Z,23.50
2022-12-20T12:55:47.563Z,23.52
2022-12-20T12:58:34.270Z,23.51
2022-12-20T13:01:05.076Z,23.53
2022-12-20T13:03:47.864Z,23.49
2022-12-20T13:07:04.339Z,23.56
2022-12-20T13:09:40.261Z,23.56
2022-12-20T13:12:50.778Z,23.55
2022-12-20T13:15:51.936Z,23.55
2022-12-20T13:18:26.934Z,23.54
2022-12-20T13:21:26.204Z,23.54
2022-12-20T13:24:20.852Z,23.52
2022-12-20T13:26:52.832Z,23.51
2022-12-20T13:29:25.331Z,23.52
2022-12-20T13:31:54.910Z,23.52
2022-12-20T13:34:41.370Z,23.52
2022-12-20T13:37:28.097Z,23.41
2022-12-20T13:39:56.046Z,23.50
2022-12-20T13:42:33.997Z,23.51
2022-12-20T13:45:03.319Z,23.52
2022-12-20T13:47:41.973Z,23.49
2022-12-20T13:50:28.896Z,23.49
2022-12-20T13:52:57.598Z,23.50
2022-12-20T13:55:31.737Z,23.49
2022-12-20T13:57:59.698Z,23.49
2022-12-20T14:00:27.592Z,23.42
2022-12-20T14:02:57.362Z,23.51
2022-12-20T14:05:26.558Z,23.50
2022-12-20T14:07:58.093Z,23.50
2022-12-20T14:10:26.677Z,23.50
2022-12-20T14:12:54.811Z,23.50
2022-12-20T14:15:27.572Z,23.50
2022-12-20T14:17:57.049Z,23.45
2022-12-20T14:20:27.224Z,23.49
2022-12-20T14:23:04.162Z,23.50
2022-12-20T14:25:38.927Z,23.11
2022-12-20T14:28:06.918Z,23.46
2022-12-20T14:30:37.595Z,23.49
2022-12-20T14:33:07.198Z,23.50
2022-12-20T14:35:35.079Z,23.50
2022-12-20T14:38:04.225Z,23.49
2022-12-20T14:40:32.316Z,23.48
2022-12-20T14:43:01.211Z,23.51
2022-12-20T14:45:29.189Z,23.50
2022-12-20T14:47:59.599Z,23.50
2022-12-20T14:50:35.894Z,23.43
2022-12-20T14:53:04.161Z,23.49
2022-12-20T14:55:36.502Z,23.49
2022-12-20T14:58:07.933Z,23.48
2022-12-20T15:00:35.899Z,23.47
2022-12-20T15:03:05.027Z,23.48
2022-12-20T15:05:50.354Z,23.49
2022-12-20T15:08:20.413Z,23.48
2022-12-20T15:10:51.292Z,23.48
2022-12-20T15:13:20.481Z,23.49
2022-12-20T15:15:48.434Z,23.50
2022-12-20T15:18:17.263Z,23.49
2022-12-20T15:20:45.775Z,23.49
2022-12-20T15:23:16.512Z,23.49
2022-12-20T15:25:44.708Z,23.49
2022-12-20T15:28:17.774Z,23.49
2022-12-20T15:30:46.332Z,23.49
2022-12-20T15:33:18.523Z,23.50
2022-12-20T15:35:46.398Z,23.50
2022-12-20T15:38:25.547Z,23.50
2022-12-20T15:41:05.559Z,23.50
2022-12-20T15:43:38.858Z,23.43
2022-12-20T15:46:07.257Z,23.47
2022-12-20T15:48:35.215Z,23.49
2022-12-20T15:51:03.224Z,23.49
2022-12-20T15:53:34.169Z,23.50
2022-12-20T15:56:02.125Z,23.48
2022-12-20T15:58:30.047Z,23.50
2022-12-20T16:00:59.954Z,23.48
2022-12-20T16:03:30.205Z,23.43
2022-12-20T16:05:58.240Z,23.47
2022-12-20T16:08:26.142Z,23.49
2022-12-20T16:10:55.454Z,23.49
2022-12-20T16:13:24.779Z,23.49
2022-12-20T16:15:52.756Z,23.49
2022-12-20T16:18:20.771Z,23.49
2022-12-20T16:20:48.809Z,23.49
2022-12-20T16:23:19.029Z,23.46
2022-12-20T16:25:46.990Z,23.48
2022-12-20T16:28:16.293Z,23.48
2022-12-20T16:30:50.957Z,23.47
2022-12-20T16:33:21.660Z,23.49
2022-12-20T16:35:49.550Z,23.49
2022-12-20T16:38:18.213Z,23.48
2022-12-20T16:40:46.122Z,23.49
2022-12-20T16:43:18.263Z,23.48
2022-12-20T16:45:46.213Z,23.50
2022-12-20T16:48:14.081Z,23.50
2022-12-20T16:50:43.500Z,23.50
2022-12-20T16:53:15.426Z,23.49
2022-12-20T16:55:43.393Z,23.50
2022-12-20T16:58:12.281Z,23.49
2022-12-20T17:00:41.614Z,23.50
2022-12-20T17:03:10.108Z,23.50
2022-12-20T17:05:39.595Z,23.50
2022-12-20T17:10:53.428Z,23.48
2022-12-20T17:13:21.637Z,23.50
2022-12-20T17:15:50.979Z,23.50
2022-12-20T17:18:18.892Z,23.50
2022-12-20T17:20:46.800Z,23.49
2022-12-20T17:26:01.280Z,23.48
2022-12-20T17:28:29.664Z,23.49
2022-12-20T17:31:05.842Z,23.49
2022-12-20T17:33:36.149Z,23.49
2022-12-20T17:36:04.348Z,23.49
2022-12-20T17:38:32.256Z,23.49
2022-12-20T17:41:00.155Z,23.50
2022-12-20T17:43:28.329Z,23.48
2022-12-20T17:45:56.294Z,23.50
2022-12-20T17:48:32.186Z,23.50
2022-12-20T17:51:01.863Z,23.48
2022-12-20T17:53:30.078Z,23.49
2022-12-20T17:55:58.417Z,23.50
2022-12-20T17:58:26.307Z,23.50
2022-12-20T18:00:54.253Z,23.50
2022-12-20T18:04:01.571Z,23.50
2022-12-20T18:06:12.121Z,23.51
2022-12-20T18:08:40.175Z,22.94
2022-12-20T18:11:08.240Z,23.52
2022-12-20T18:13:36.668Z,23.44
2022-12-20T18:16:08.164Z,23.43
2022-12-20T18:18:37.163Z,23.47
2022-12-20T18:21:05.925Z,23.60
2022-12-20T18:23:35.810Z,23.56
2022-12-20T18:26:08.424Z,23.67
2022-12-20T18:28:36.607Z,23.59
2022-12-20T18:31:05.097Z,23.60
2022-12-20T18:33:33.295Z,23.81
2022-12-20T18:36:02.257Z,23.85
2022-12-20T18:38:30.133Z,23.87
2022-12-20T18:41:00.905Z,23.87
2022-12-20T18:43:30.470Z,23.88
2022-12-20T18:45:58.483Z,23.87
2022-12-20T18:48:26.405Z,23.84
2022-12-20T18:50:54.407Z,23.82
2022-12-20T18:53:22.574Z,23.79
2022-12-20T18:55:50.479Z,23.78
2022-12-20T18:58:19.849Z,23.75
2022-12-20T19:00:47.734Z,23.73
2022-12-20T19:03:16.182Z,23.70
2022-12-20T19:05:44.206Z,23.70
2022-12-20T19:08:12.127Z,23.69
2022-12-20T19:10:39.983Z,23.70
2022-12-20T19:13:08.383Z,23.69
2022-12-20T19:15:37.999Z,23.69
2022-12-20T19:18:06.820Z,23.67
2022-12-20T19:20:35.936Z,23.68
2022-12-20T19:23:04.239Z,23.67
2022-12-20T19:25:34.123Z,23.64
2022-12-20T19:28:01.989Z,23.63
2022-12-20T19:30:30.095Z,23.62
2022-12-20T19:32:59.905Z,23.61
2022-12-20T19:35:54.796Z,23.61
2022-12-20T19:38:15.672Z,23.59
2022-12-20T19:40:43.669Z,23.59
2022-12-20T19:43:11.871Z,23.59
2022-12-20T19:45:39.760Z,23.59
2022-12-20T19:48:09.096Z,23.59
2022-12-20T19:50:37.007Z,23.58
2022-12-20T19:53:05.583Z,23.57
2022-12-20T19:55:33.520Z,23.56
2022-12-20T19:58:01.445Z,23.55
2022-12-20T20:00:29.319Z,23.56
2022-12-20T20:02:57.830Z,23.55
2022-12-20T20:05:27.309Z,23.55
2022-12-20T20:07:55.200Z,23.53
2022-12-20T20:10:23.110Z,23.55
2022-12-20T20:12:51.577Z,23.55
2022-12-20T20:15:19.457Z,23.55
2022-12-20T20:17:47.345Z,23.55
2022-12-20T20:20:15.335Z,23.53
2022-12-20T20:22:44.982Z,23.54
2022-12-20T20:25:12.922Z,23.54
2022-12-20T20:27:40.889Z,23.53
2022-12-20T20:30:14.515Z,23.53
2022-12-20T20:32:42.906Z,23.53
2022-12-20T20:35:11.289Z,23.54
2022-12-20T20:37:39.901Z,23.54
2022-12-20T20:40:10.634Z,23.52
2022-12-20T20:42:38.980Z,23.53
2022-12-20T20:45:09.959Z,23.53
2022-12-20T20:47:37.824Z,23.53
2022-12-20T20:50:06.877Z,23.52
2022-12-20T20:52:35.208Z,23.52
2022-12-20T20:55:03.074Z,23.52
2022-12-20T20:57:32.476Z,23.53
2022-12-20T21:00:00.471Z,23.52
2022-12-20T21:02:28.894Z,23.53
2022-12-20T21:05:35.590Z,23.52
2022-12-20T21:07:45.443Z,23.53
2022-12-20T21:10:13.585Z,23.52
2022-12-20T21:12:43.291Z,23.51
2022-12-20T21:15:22.496Z,23.53
2022-12-20T21:17:51.384Z,23.52
2022-12-20T21:20:23.982Z,23.54
2022-12-20T21:22:55.324Z,23.53
2022-12-20T21:25:23.229Z,23.53
2022-12-20T21:27:52.732Z,23.53
2022-12-20T21:30:21.208Z,23.54
2022-12-20T21:32:49.243Z,23.54
2022-12-20T21:35:17.523Z,23.54
2022-12-20T21:37:46.000Z,23.52
2022-12-20T21:40:14.871Z,23.54
2022-12-20T21:42:43.242Z,23.55
2022-12-20T21:45:12.877Z,23.54
2022-12-20T21:47:40.879Z,23.55
2022-12-20T21:50:09.700Z,23.54
2022-12-20T21:52:39.970Z,23.55
2022-12-20T21:55:08.659Z,23.55
2022-12-20T21:57:36.567Z,23.55
2022-12-20T22:00:05.933Z,23.55
2022-12-20T22:02:36.755Z,23.55
2022-12-20T22:05:05.367Z,23.55
2022-12-20T22:07:33.353Z,23.55
2022-12-20T22:10:01.516Z,23.55
2022-12-20T22:12:30.659Z,23.55
2022-12-20T22:14:58.614Z,23.56
2022-12-20T22:17:28.123Z,23.55
2022-12-20T22:19:57.792Z,23.56
2022-12-20T22:22:26.197Z,23.54
2022-12-20T22:24:54.762Z,23.55
2022-12-20T22:27:22.777Z,23.55
2022-12-20T22:29:51.228Z,23.54
2022-12-20T22:32:19.329Z,23.55
2022-12-20T22:34:47.507Z,23.56
2022-12-20T22:37:16.754Z,23.56
2022-12-20T22:39:44.979Z,23.55
2022-12-20T22:42:13.197Z,23.56
2022-12-20T22:44:41.447Z,23.55
2022-12-20T22:47:09.666Z,23.55
2022-12-20T22:49:37.592Z,23.56
2022-12-20T22:52:07.613Z,23.55
2022-12-20T22:54:37.641Z,23.55
2022-12-20T22:57:05.481Z,23.56
2022-12-20T22:59:34.725Z,23.55
2022-12-20T23:02:02.834Z,23.56
2022-12-20T23:04:31.187Z,23.54
2022-12-20T23:06:59.059Z,23.53
2022-12-20T23:09:27.291Z,23.54
2022-12-20T23:12:14.450Z,23.53
2022-12-20T23:15:03.761Z,23.53
2022-12-20T23:17:33.419Z,23.53
2022-12-20T23:20:18.930Z,23.52
2022-12-20T23:22:46.808Z,23.53
2022-12-20T23:25:15.623Z,23.53
2022-12-20T23:27:45.745Z,23.51
2022-12-20T23:30:14.978Z,23.54
2022-12-20T23:32:44.364Z,23.52
2022-12-20T23:35:12.996Z,23.53
2022-12-20T23:37:40.939Z,23.51
2022-12-20T23:40:09.863Z,23.50
2022-12-20T23:42:38.112Z,23.52
2022-12-20T23:45:10.534Z,23.51
2022-12-20T23:47:38.448Z,23.51
2022-12-20T23:50:07.409Z,23.50
2022-12-20T23:52:35.591Z,23.50
2022-12-20T23:55:03.508Z,23.50
2022-12-20T23:57:32.478Z,23.48
